sensor_id;sensor_type;location;lat;lon;timestamp;P1;durP1;ratioP1;P2;durP2;ratioP2
11835;SDS011;5977;51.972;7.640;2022-09-12T00:00:49;161.03;;;51.57;;
11835;SDS011;5977;51.972;7.640;2022-09-12T00:03:17;159.40;;;50.73;;
11835;SDS011;5977;51.972;7.640;2022-09-12T00:05:45;160.37;;;51.30;;
11835;SDS011;5977;51.972;7.640;2022-09-12T00:08:13;160.57;;;51.77;;
11835;SDS011;5977;51.972;7.640;2022-09-12T00:10:42;160.03;;;51.07;;
11835;SDS011;5977;51.972;7.640;2022-09-12T00:13:12;160.43;;;51.43;;
11835;SDS011;5977;51.972;7.640;2022-09-12T00:15:40;160.53;;;51.47;;
11835;SDS011;5977;51.972;7.640;2022-09-12T00:18:11;160.27;;;51.63;;
11835;SDS011;5977;51.972;7.640;2022-09-12T00:20:41;160.73;;;51.50;;
11835;SDS011;5977;51.972;7.640;2022-09-12T00:23:09;160.43;;;51.53;;
11835;SDS011;5977;51.972;7.640;2022-09-12T00:25:40;160.17;;;51.13;;
11835;SDS011;5977;51.972;7.640;2022-09-12T00:28:08;160.03;;;50.87;;
11835;SDS011;5977;51.972;7.640;2022-09-12T00:30:40;159.40;;;50.90;;
11835;SDS011;5977;51.972;7.640;2022-09-12T00:33:09;159.77;;;51.00;;
11835;SDS011;5977;51.972;7.640;2022-09-12T00:35:40;160.47;;;51.60;;
11835;SDS011;5977;51.972;7.640;2022-09-12T00:38:09;161.03;;;51.83;;
11835;SDS011;5977;51.972;7.640;2022-09-12T00:40:37;160.00;;;51.47;;
11835;SDS011;5977;51.972;7.640;2022-09-12T00:43:05;160.00;;;51.43;;
11835;SDS011;5977;51.972;7.640;2022-09-12T00:45:36;160.17;;;51.53;;
11835;SDS011;5977;51.972;7.640;2022-09-12T00:48:07;160.80;;;51.93;;
11835;SDS011;5977;51.972;7.640;2022-09-12T00:50:46;160.23;;;51.57;;
11835;SDS011;5977;51.972;7.640;2022-09-12T00:53:14;160.87;;;51.57;;
11835;SDS011;5977;51.972;7.640;2022-09-12T00:55:43;160.20;;;51.77;;
11835;SDS011;5977;51.972;7.640;2022-09-12T00:58:17;160.77;;;51.73;;
11835;SDS011;5977;51.972;7.640;2022-09-12T01:00:49;160.60;;;51.67;;
11835;SDS011;5977;51.972;7.640;2022-09-12T01:03:19;159.97;;;51.10;;
11835;SDS011;5977;51.972;7.640;2022-09-12T01:05:52;160.00;;;51.47;;
11835;SDS011;5977;51.972;7.640;2022-09-12T01:08:27;160.33;;;51.57;;
11835;SDS011;5977;51.972;7.640;2022-09-12T01:10:56;159.33;;;50.73;;
11835;SDS011;5977;51.972;7.640;2022-09-12T01:13:24;160.20;;;51.47;;
11835;SDS011;5977;51.972;7.640;2022-09-12T01:15:52;160.87;;;51.83;;
11835;SDS011;5977;51.972;7.640;2022-09-12T01:18:23;160.07;;;51.37;;
11835;SDS011;5977;51.972;7.640;2022-09-12T01:21:03;160.30;;;51.53;;
11835;SDS011;5977;51.972;7.640;2022-09-12T01:26:39;160.50;;;51.50;;
11835;SDS011;5977;51.972;7.640;2022-09-12T01:29:24;160.87;;;51.80;;
11835;SDS011;5977;51.972;7.640;2022-09-12T01:32:11;160.07;;;51.43;;
11835;SDS011;5977;51.972;7.640;2022-09-12T01:34:48;160.50;;;51.77;;
11835;SDS011;5977;51.972;7.640;2022-09-12T01:37:22;160.80;;;51.63;;
11835;SDS011;5977;51.972;7.640;2022-09-12T01:39:57;159.53;;;51.13;;
11835;SDS011;5977;51.972;7.640;2022-09-12T01:42:30;160.13;;;51.60;;
11835;SDS011;5977;51.972;7.640;2022-09-12T01:45:02;160.57;;;51.70;;
11835;SDS011;5977;51.972;7.640;2022-09-12T01:47:39;160.03;;;51.23;;
11835;SDS011;5977;51.972;7.640;2022-09-12T01:50:11;160.67;;;51.87;;
11835;SDS011;5977;51.972;7.640;2022-09-12T01:52:46;161.17;;;51.97;;
11835;SDS011;5977;51.972;7.640;2022-09-12T01:55:17;160.17;;;51.47;;
11835;SDS011;5977;51.972;7.640;2022-09-12T01:57:50;160.67;;;51.87;;
11835;SDS011;5977;51.972;7.640;2022-09-12T02:00:22;160.40;;;51.80;;
11835;SDS011;5977;51.972;7.640;2022-09-12T02:02:52;160.03;;;51.63;;
11835;SDS011;5977;51.972;7.640;2022-09-12T02:05:28;160.87;;;51.80;;
11835;SDS011;5977;51.972;7.640;2022-09-12T02:08:00;161.03;;;52.07;;
11835;SDS011;5977;51.972;7.640;2022-09-12T02:10:33;160.30;;;51.43;;
11835;SDS011;5977;51.972;7.640;2022-09-12T02:13:08;160.50;;;51.63;;
11835;SDS011;5977;51.972;7.640;2022-09-12T02:15:39;160.47;;;51.67;;
11835;SDS011;5977;51.972;7.640;2022-09-12T02:18:14;160.87;;;51.83;;
11835;SDS011;5977;51.972;7.640;2022-09-12T02:20:45;160.27;;;51.50;;
11835;SDS011;5977;51.972;7.640;2022-09-12T02:23:16;160.07;;;51.23;;
11835;SDS011;5977;51.972;7.640;2022-09-12T02:25:47;160.03;;;51.07;;
11835;SDS011;5977;51.972;7.640;2022-09-12T02:28:19;160.23;;;51.50;;
11835;SDS011;5977;51.972;7.640;2022-09-12T02:30:55;160.40;;;51.63;;
11835;SDS011;5977;51.972;7.640;2022-09-12T02:33:32;160.07;;;51.20;;
11835;SDS011;5977;51.972;7.640;2022-09-12T02:36:08;160.80;;;51.57;;
11835;SDS011;5977;51.972;7.640;2022-09-12T02:38:47;159.97;;;50.93;;
11835;SDS011;5977;51.972;7.640;2022-09-12T02:41:17;160.23;;;51.33;;
11835;SDS011;5977;51.972;7.640;2022-09-12T02:43:46;160.27;;;51.47;;
11835;SDS011;5977;51.972;7.640;2022-09-12T02:46:17;160.10;;;51.47;;
11835;SDS011;5977;51.972;7.640;2022-09-12T02:48:49;159.33;;;50.73;;
11835;SDS011;5977;51.972;7.640;2022-09-12T02:51:17;159.47;;;51.20;;
11835;SDS011;5977;51.972;7.640;2022-09-12T02:53:49;160.37;;;51.53;;
11835;SDS011;5977;51.972;7.640;2022-09-12T02:56:17;159.70;;;51.23;;
11835;SDS011;5977;51.972;7.640;2022-09-12T02:58:50;160.23;;;51.60;;
11835;SDS011;5977;51.972;7.640;2022-09-12T03:01:23;160.20;;;51.40;;
11835;SDS011;5977;51.972;7.640;2022-09-12T03:04:08;160.57;;;51.90;;
11835;SDS011;5977;51.972;7.640;2022-09-12T03:06:57;160.70;;;51.77;;
11835;SDS011;5977;51.972;7.640;2022-09-12T03:09:37;160.60;;;51.83;;
11835;SDS011;5977;51.972;7.640;2022-09-12T03:12:18;160.60;;;51.67;;
11835;SDS011;5977;51.972;7.640;2022-09-12T03:15:00;160.83;;;52.00;;
11835;SDS011;5977;51.972;7.640;2022-09-12T03:17:41;160.60;;;51.80;;
11835;SDS011;5977;51.972;7.640;2022-09-12T03:20:19;160.30;;;51.47;;
11835;SDS011;5977;51.972;7.640;2022-09-12T03:22:58;160.20;;;51.13;;
11835;SDS011;5977;51.972;7.640;2022-09-12T03:25:31;159.97;;;51.47;;
11835;SDS011;5977;51.972;7.640;2022-09-12T03:28:04;160.47;;;51.67;;
11835;SDS011;5977;51.972;7.640;2022-09-12T03:30:36;160.57;;;51.63;;
11835;SDS011;5977;51.972;7.640;2022-09-12T03:33:05;159.93;;;51.17;;
11835;SDS011;5977;51.972;7.640;2022-09-12T03:35:38;160.53;;;51.63;;
11835;SDS011;5977;51.972;7.640;2022-09-12T03:38:06;160.37;;;51.43;;
11835;SDS011;5977;51.972;7.640;2022-09-12T03:40:34;160.27;;;51.53;;
11835;SDS011;5977;51.972;7.640;2022-09-12T03:43:02;159.37;;;50.90;;
11835;SDS011;5977;51.972;7.640;2022-09-12T03:45:30;160.43;;;51.23;;
11835;SDS011;5977;51.972;7.640;2022-09-12T03:47:58;160.17;;;51.63;;
11835;SDS011;5977;51.972;7.640;2022-09-12T03:50:26;160.10;;;51.33;;
11835;SDS011;5977;51.972;7.640;2022-09-12T03:52:56;160.20;;;51.47;;
11835;SDS011;5977;51.972;7.640;2022-09-12T03:55:25;160.07;;;51.40;;
11835;SDS011;5977;51.972;7.640;2022-09-12T03:57:53;160.13;;;51.23;;
11835;SDS011;5977;51.972;7.640;2022-09-12T04:00:22;160.03;;;51.43;;
11835;SDS011;5977;51.972;7.640;2022-09-12T04:02:54;160.30;;;51.43;;
11835;SDS011;5977;51.972;7.640;2022-09-12T04:05:23;160.43;;;51.30;;
11835;SDS011;5977;51.972;7.640;2022-09-12T04:07:51;159.97;;;51.30;;
11835;SDS011;5977;51.972;7.640;2022-09-12T04:10:21;159.60;;;50.77;;
11835;SDS011;5977;51.972;7.640;2022-09-12T04:12:48;160.13;;;51.07;;
11835;SDS011;5977;51.972;7.640;2022-09-12T04:15:16;160.37;;;51.53;;
11835;SDS011;5977;51.972;7.640;2022-09-12T04:17:44;160.60;;;52.03;;
11835;SDS011;5977;51.972;7.640;2022-09-12T04:20:12;160.03;;;51.97;;
11835;SDS011;5977;51.972;7.640;2022-09-12T04:22:40;159.97;;;51.33;;
11835;SDS011;5977;51.972;7.640;2022-09-12T04:25:08;159.77;;;50.87;;
11835;SDS011;5977;51.972;7.640;2022-09-12T04:27:38;160.23;;;51.43;;
11835;SDS011;5977;51.972;7.640;2022-09-12T04:30:07;159.87;;;51.23;;
11835;SDS011;5977;51.972;7.640;2022-09-12T04:32:35;159.70;;;51.27;;
11835;SDS011;5977;51.972;7.640;2022-09-12T04:35:03;159.43;;;51.13;;
11835;SDS011;5977;51.972;7.640;2022-09-12T04:37:31;160.03;;;51.43;;
11835;SDS011;5977;51.972;7.640;2022-09-12T04:39:59;160.37;;;51.70;;
11835;SDS011;5977;51.972;7.640;2022-09-12T04:42:27;160.57;;;51.47;;
11835;SDS011;5977;51.972;7.640;2022-09-12T04:44:59;159.67;;;51.37;;
11835;SDS011;5977;51.972;7.640;2022-09-12T04:47:29;160.20;;;51.47;;
11835;SDS011;5977;51.972;7.640;2022-09-12T04:49:59;160.00;;;51.33;;
11835;SDS011;5977;51.972;7.640;2022-09-12T04:52:27;159.47;;;51.07;;
11835;SDS011;5977;51.972;7.640;2022-09-12T04:54:55;160.13;;;51.37;;
11835;SDS011;5977;51.972;7.640;2022-09-12T04:57:23;160.43;;;51.23;;
11835;SDS011;5977;51.972;7.640;2022-09-12T04:59:51;159.60;;;51.13;;
11835;SDS011;5977;51.972;7.640;2022-09-12T05:02:20;160.50;;;51.43;;
11835;SDS011;5977;51.972;7.640;2022-09-12T05:04:48;159.60;;;51.07;;
11835;SDS011;5977;51.972;7.640;2022-09-12T05:07:16;159.60;;;50.87;;
11835;SDS011;5977;51.972;7.640;2022-09-12T05:09:44;159.73;;;50.97;;
11835;SDS011;5977;51.972;7.640;2022-09-12T05:12:12;159.50;;;50.83;;
11835;SDS011;5977;51.972;7.640;2022-09-12T05:14:40;160.03;;;51.20;;
11835;SDS011;5977;51.972;7.640;2022-09-12T05:17:08;160.13;;;52.03;;
11835;SDS011;5977;51.972;7.640;2022-09-12T05:19:37;160.07;;;51.40;;
11835;SDS011;5977;51.972;7.640;2022-09-12T05:22:07;160.13;;;51.47;;
11835;SDS011;5977;51.972;7.640;2022-09-12T05:24:35;160.57;;;51.53;;
11835;SDS011;5977;51.972;7.640;2022-09-12T05:27:04;160.20;;;51.57;;
11835;SDS011;5977;51.972;7.640;2022-09-12T05:29:32;160.23;;;51.40;;
11835;SDS011;5977;51.972;7.640;2022-09-12T05:32:00;159.83;;;51.53;;
11835;SDS011;5977;51.972;7.640;2022-09-12T05:34:28;159.43;;;51.00;;
11835;SDS011;5977;51.972;7.640;2022-09-12T05:36:57;160.20;;;51.20;;
11835;SDS011;5977;51.972;7.640;2022-09-12T05:39:25;160.53;;;51.63;;
11835;SDS011;5977;51.972;7.640;2022-09-12T05:41:53;160.40;;;51.53;;
11835;SDS011;5977;51.972;7.640;2022-09-12T05:44:21;159.37;;;50.70;;
11835;SDS011;5977;51.972;7.640;2022-09-12T05:46:50;159.40;;;50.83;;
11835;SDS011;5977;51.972;7.640;2022-09-12T05:49:18;159.73;;;51.03;;
11835;SDS011;5977;51.972;7.640;2022-09-12T05:51:47;159.43;;;51.07;;
11835;SDS011;5977;51.972;7.640;2022-09-12T05:54:17;159.37;;;50.60;;
11835;SDS011;5977;51.972;7.640;2022-09-12T05:56:47;159.70;;;50.97;;
11835;SDS011;5977;51.972;7.640;2022-09-12T05:59:15;159.30;;;50.70;;
11835;SDS011;5977;51.972;7.640;2022-09-12T06:01:45;159.17;;;50.73;;
11835;SDS011;5977;51.972;7.640;2022-09-12T06:04:14;158.87;;;50.53;;
11835;SDS011;5977;51.972;7.640;2022-09-12T06:06:43;159.27;;;50.30;;
11835;SDS011;5977;51.972;7.640;2022-09-12T06:09:12;159.83;;;50.77;;
11835;SDS011;5977;51.972;7.640;2022-09-12T06:11:42;159.63;;;50.43;;
11835;SDS011;5977;51.972;7.640;2022-09-12T06:14:12;159.47;;;50.50;;
11835;SDS011;5977;51.972;7.640;2022-09-12T06:16:42;158.57;;;50.17;;
11835;SDS011;5977;51.972;7.640;2022-09-12T06:19:12;158.73;;;50.23;;
11835;SDS011;5977;51.972;7.640;2022-09-12T06:21:41;159.13;;;50.27;;
11835;SDS011;5977;51.972;7.640;2022-09-12T06:24:09;159.73;;;50.63;;
11835;SDS011;5977;51.972;7.640;2022-09-12T06:26:37;159.53;;;50.70;;
11835;SDS011;5977;51.972;7.640;2022-09-12T06:29:07;159.33;;;50.57;;
11835;SDS011;5977;51.972;7.640;2022-09-12T06:31:36;158.53;;;50.10;;
11835;SDS011;5977;51.972;7.640;2022-09-12T06:34:07;159.43;;;50.80;;
11835;SDS011;5977;51.972;7.640;2022-09-12T06:36:37;159.07;;;50.33;;
11835;SDS011;5977;51.972;7.640;2022-09-12T06:39:07;159.03;;;50.50;;
11835;SDS011;5977;51.972;7.640;2022-09-12T06:41:37;158.97;;;50.70;;
11835;SDS011;5977;51.972;7.640;2022-09-12T06:44:11;159.50;;;51.00;;
11835;SDS011;5977;51.972;7.640;2022-09-12T06:46:41;159.50;;;51.10;;
11835;SDS011;5977;51.972;7.640;2022-09-12T06:49:09;159.17;;;50.87;;
11835;SDS011;5977;51.972;7.640;2022-09-12T06:51:37;159.17;;;50.60;;
11835;SDS011;5977;51.972;7.640;2022-09-12T06:54:07;160.37;;;51.07;;
11835;SDS011;5977;51.972;7.640;2022-09-12T06:56:38;159.67;;;50.67;;
11835;SDS011;5977;51.972;7.640;2022-09-12T06:59:06;159.07;;;50.30;;
11835;SDS011;5977;51.972;7.640;2022-09-12T07:01:35;158.37;;;50.03;;
11835;SDS011;5977;51.972;7.640;2022-09-12T07:04:03;159.17;;;50.50;;
11835;SDS011;5977;51.972;7.640;2022-09-12T07:06:34;159.10;;;50.40;;
11835;SDS011;5977;51.972;7.640;2022-09-12T07:09:04;159.83;;;51.10;;
11835;SDS011;5977;51.972;7.640;2022-09-12T07:11:35;159.87;;;50.93;;
11835;SDS011;5977;51.972;7.640;2022-09-12T07:14:05;158.97;;;50.50;;
11835;SDS011;5977;51.972;7.640;2022-09-12T07:16:35;159.53;;;50.77;;
11835;SDS011;5977;51.972;7.640;2022-09-12T07:19:04;159.70;;;51.03;;
11835;SDS011;5977;51.972;7.640;2022-09-12T07:21:33;159.43;;;50.87;;
11835;SDS011;5977;51.972;7.640;2022-09-12T07:24:05;159.63;;;50.90;;
11835;SDS011;5977;51.972;7.640;2022-09-12T07:26:33;159.30;;;51.03;;
11835;SDS011;5977;51.972;7.640;2022-09-12T07:29:01;158.77;;;51.03;;
11835;SDS011;5977;51.972;7.640;2022-09-12T07:31:51;159.93;;;51.33;;
11835;SDS011;5977;51.972;7.640;2022-09-12T07:34:20;159.07;;;51.07;;
11835;SDS011;5977;51.972;7.640;2022-09-12T07:36:47;160.13;;;51.57;;
11835;SDS011;5977;51.972;7.640;2022-09-12T07:39:15;159.93;;;51.50;;
11835;SDS011;5977;51.972;7.640;2022-09-12T07:41:43;159.87;;;51.47;;
11835;SDS011;5977;51.972;7.640;2022-09-12T07:44:11;159.53;;;50.93;;
11835;SDS011;5977;51.972;7.640;2022-09-12T07:46:39;159.10;;;50.70;;
11835;SDS011;5977;51.972;7.640;2022-09-12T07:49:10;159.80;;;51.37;;
11835;SDS011;5977;51.972;7.640;2022-09-12T07:51:38;159.37;;;51.20;;
11835;SDS011;5977;51.972;7.640;2022-09-12T07:54:06;160.17;;;51.27;;
11835;SDS011;5977;51.972;7.640;2022-09-12T07:56:35;159.50;;;51.20;;
11835;SDS011;5977;51.972;7.640;2022-09-12T07:59:05;159.80;;;51.07;;
11835;SDS011;5977;51.972;7.640;2022-09-12T08:01:33;159.33;;;50.77;;
11835;SDS011;5977;51.972;7.640;2022-09-12T08:04:01;158.77;;;50.70;;
11835;SDS011;5977;51.972;7.640;2022-09-12T08:06:31;159.97;;;51.53;;
11835;SDS011;5977;51.972;7.640;2022-09-12T08:09:02;160.30;;;51.80;;
11835;SDS011;5977;51.972;7.640;2022-09-12T08:11:31;160.43;;;51.97;;
11835;SDS011;5977;51.972;7.640;2022-09-12T08:13:58;160.93;;;52.27;;
11835;SDS011;5977;51.972;7.640;2022-09-12T08:16:28;159.97;;;51.67;;
11835;SDS011;5977;51.972;7.640;2022-09-12T08:18:58;159.50;;;51.30;;
11835;SDS011;5977;51.972;7.640;2022-09-12T08:21:27;160.17;;;51.73;;
11835;SDS011;5977;51.972;7.640;2022-09-12T08:23:59;160.00;;;51.53;;
11835;SDS011;5977;51.972;7.640;2022-09-12T08:26:28;160.03;;;51.67;;
11835;SDS011;5977;51.972;7.640;2022-09-12T08:28:58;159.97;;;51.67;;
11835;SDS011;5977;51.972;7.640;2022-09-12T08:31:26;160.20;;;51.73;;
11835;SDS011;5977;51.972;7.640;2022-09-12T08:33:57;159.50;;;51.53;;
11835;SDS011;5977;51.972;7.640;2022-09-12T08:36:26;159.57;;;51.57;;
11835;SDS011;5977;51.972;7.640;2022-09-12T08:38:56;159.53;;;51.53;;
11835;SDS011;5977;51.972;7.640;2022-09-12T08:41:29;160.13;;;51.67;;
11835;SDS011;5977;51.972;7.640;2022-09-12T08:44:05;159.97;;;51.93;;
11835;SDS011;5977;51.972;7.640;2022-09-12T08:47:02;159.40;;;51.70;;
11835;SDS011;5977;51.972;7.640;2022-09-12T08:49:44;160.00;;;51.93;;
11835;SDS011;5977;51.972;7.640;2022-09-12T08:52:20;159.57;;;52.03;;
11835;SDS011;5977;51.972;7.640;2022-09-12T08:54:52;160.90;;;52.50;;
11835;SDS011;5977;51.972;7.640;2022-09-12T08:57:23;159.90;;;51.83;;
11835;SDS011;5977;51.972;7.640;2022-09-12T08:59:50;160.33;;;52.30;;
11835;SDS011;5977;51.972;7.640;2022-09-12T09:02:26;160.47;;;52.67;;
11835;SDS011;5977;51.972;7.640;2022-09-12T09:05:14;159.97;;;52.33;;
11835;SDS011;5977;51.972;7.640;2022-09-12T09:07:52;158.87;;;51.40;;
11835;SDS011;5977;51.972;7.640;2022-09-12T09:10:47;159.20;;;51.87;;
11835;SDS011;5977;51.972;7.640;2022-09-12T09:13:23;160.43;;;52.13;;
11835;SDS011;5977;51.972;7.640;2022-09-12T09:16:17;160.33;;;52.33;;
11835;SDS011;5977;51.972;7.640;2022-09-12T09:18:52;160.20;;;52.07;;
11835;SDS011;5977;51.972;7.640;2022-09-12T09:21:24;159.97;;;52.43;;
11835;SDS011;5977;51.972;7.640;2022-09-12T09:23:58;160.60;;;52.53;;
11835;SDS011;5977;51.972;7.640;2022-09-12T09:26:33;159.97;;;52.10;;
11835;SDS011;5977;51.972;7.640;2022-09-12T09:29:13;159.83;;;52.13;;
11835;SDS011;5977;51.972;7.640;2022-09-12T09:31:43;159.80;;;52.17;;
11835;SDS011;5977;51.972;7.640;2022-09-12T09:34:17;160.93;;;52.97;;
11835;SDS011;5977;51.972;7.640;2022-09-12T09:36:50;160.57;;;52.70;;
11835;SDS011;5977;51.972;7.640;2022-09-12T09:39:24;160.03;;;52.47;;
11835;SDS011;5977;51.972;7.640;2022-09-12T09:42:08;160.53;;;52.80;;
11835;SDS011;5977;51.972;7.640;2022-09-12T09:44:44;159.23;;;52.17;;
11835;SDS011;5977;51.972;7.640;2022-09-12T09:47:14;160.97;;;53.57;;
11835;SDS011;5977;51.972;7.640;2022-09-12T09:49:44;160.53;;;53.43;;
11835;SDS011;5977;51.972;7.640;2022-09-12T09:52:13;159.67;;;52.70;;
11835;SDS011;5977;51.972;7.640;2022-09-12T09:54:43;160.53;;;53.53;;
11835;SDS011;5977;51.972;7.640;2022-09-12T10:00:25;160.27;;;53.63;;
11835;SDS011;5977;51.972;7.640;2022-09-12T10:05:52;159.93;;;52.93;;
11835;SDS011;5977;51.972;7.640;2022-09-12T10:08:23;160.40;;;53.30;;
11835;SDS011;5977;51.972;7.640;2022-09-12T10:10:56;161.53;;;54.10;;
11835;SDS011;5977;51.972;7.640;2022-09-12T10:13:39;160.97;;;53.43;;
11835;SDS011;5977;51.972;7.640;2022-09-12T10:16:17;160.43;;;53.40;;
11835;SDS011;5977;51.972;7.640;2022-09-12T10:18:47;160.43;;;53.07;;
11835;SDS011;5977;51.972;7.640;2022-09-12T10:21:25;161.10;;;53.77;;
11835;SDS011;5977;51.972;7.640;2022-09-12T10:24:11;160.13;;;53.00;;
11835;SDS011;5977;51.972;7.640;2022-09-12T10:26:48;160.83;;;53.40;;
11835;SDS011;5977;51.972;7.640;2022-09-12T10:29:23;160.83;;;53.67;;
11835;SDS011;5977;51.972;7.640;2022-09-12T10:31:54;161.10;;;54.00;;
11835;SDS011;5977;51.972;7.640;2022-09-12T10:34:26;160.47;;;53.80;;
11835;SDS011;5977;51.972;7.640;2022-09-12T10:36:58;161.47;;;54.30;;
11835;SDS011;5977;51.972;7.640;2022-09-12T10:39:28;161.13;;;54.23;;
11835;SDS011;5977;51.972;7.640;2022-09-12T10:41:57;161.53;;;54.63;;
11835;SDS011;5977;51.972;7.640;2022-09-12T10:44:26;161.80;;;54.27;;
11835;SDS011;5977;51.972;7.640;2022-09-12T10:46:57;161.13;;;54.07;;
11835;SDS011;5977;51.972;7.640;2022-09-12T10:49:28;161.00;;;54.43;;
11835;SDS011;5977;51.972;7.640;2022-09-12T10:52:15;161.13;;;54.30;;
11835;SDS011;5977;51.972;7.640;2022-09-12T10:54:44;162.10;;;55.07;;
11835;SDS011;5977;51.972;7.640;2022-09-12T11:00:06;161.13;;;54.20;;
11835;SDS011;5977;51.972;7.640;2022-09-12T11:05:34;162.00;;;54.80;;
11835;SDS011;5977;51.972;7.640;2022-09-12T11:08:10;161.03;;;53.87;;
11835;SDS011;5977;51.972;7.640;2022-09-12T11:10:47;161.57;;;54.20;;
11835;SDS011;5977;51.972;7.640;2022-09-12T11:13:25;161.00;;;54.40;;
11835;SDS011;5977;51.972;7.640;2022-09-12T11:16:14;161.40;;;54.20;;
11835;SDS011;5977;51.972;7.640;2022-09-12T11:18:55;161.50;;;54.10;;
11835;SDS011;5977;51.972;7.640;2022-09-12T11:21:46;161.23;;;53.73;;
11835;SDS011;5977;51.972;7.640;2022-09-12T11:24:37;161.57;;;54.50;;
11835;SDS011;5977;51.972;7.640;2022-09-12T11:27:22;161.33;;;53.87;;
11835;SDS011;5977;51.972;7.640;2022-09-12T11:30:01;162.03;;;54.53;;
11835;SDS011;5977;51.972;7.640;2022-09-12T11:35:28;161.63;;;53.80;;
11835;SDS011;5977;51.972;7.640;2022-09-12T11:40:59;162.47;;;54.33;;
11835;SDS011;5977;51.972;7.640;2022-09-12T11:43:32;162.47;;;54.53;;
11835;SDS011;5977;51.972;7.640;2022-09-12T11:46:09;160.57;;;53.13;;
11835;SDS011;5977;51.972;7.640;2022-09-12T11:48:44;163.10;;;54.30;;
11835;SDS011;5977;51.972;7.640;2022-09-12T11:51:23;162.93;;;54.43;;
11835;SDS011;5977;51.972;7.640;2022-09-12T11:53:57;162.43;;;53.63;;
11835;SDS011;5977;51.972;7.640;2022-09-12T11:56:29;162.93;;;54.10;;
11835;SDS011;5977;51.972;7.640;2022-09-12T11:59:02;163.07;;;54.63;;
11835;SDS011;5977;51.972;7.640;2022-09-12T12:01:38;161.83;;;53.57;;
11835;SDS011;5977;51.972;7.640;2022-09-12T12:04:14;162.67;;;53.87;;
11835;SDS011;5977;51.972;7.640;2022-09-12T12:06:50;162.37;;;54.23;;
11835;SDS011;5977;51.972;7.640;2022-09-12T12:09:22;161.63;;;53.30;;
11835;SDS011;5977;51.972;7.640;2022-09-12T12:11:51;162.50;;;54.03;;
11835;SDS011;5977;51.972;7.640;2022-09-12T12:14:23;163.07;;;54.37;;
11835;SDS011;5977;51.972;7.640;2022-09-12T12:16:57;161.63;;;53.60;;
11835;SDS011;5977;51.972;7.640;2022-09-12T12:19:29;162.63;;;54.17;;
11835;SDS011;5977;51.972;7.640;2022-09-12T12:22:06;162.07;;;53.60;;
11835;SDS011;5977;51.972;7.640;2022-09-12T12:24:52;163.07;;;54.60;;
11835;SDS011;5977;51.972;7.640;2022-09-12T12:27:23;162.10;;;53.87;;
11835;SDS011;5977;51.972;7.640;2022-09-12T12:36:31;162.27;;;53.97;;
11835;SDS011;5977;51.972;7.640;2022-09-12T12:48:48;162.37;;;54.10;;
11835;SDS011;5977;51.972;7.640;2022-09-12T12:51:36;162.53;;;54.20;;
11835;SDS011;5977;51.972;7.640;2022-09-12T12:57:28;162.67;;;54.17;;
11835;SDS011;5977;51.972;7.640;2022-09-12T13:00:03;161.03;;;53.03;;
11835;SDS011;5977;51.972;7.640;2022-09-12T13:02:34;162.57;;;53.90;;
11835;SDS011;5977;51.972;7.640;2022-09-12T13:05:16;161.97;;;53.73;;
11835;SDS011;5977;51.972;7.640;2022-09-12T13:07:47;162.33;;;54.17;;
11835;SDS011;5977;51.972;7.640;2022-09-12T13:10:21;161.80;;;53.33;;
11835;SDS011;5977;51.972;7.640;2022-09-12T13:12:52;162.97;;;54.40;;
11835;SDS011;5977;51.972;7.640;2022-09-12T13:18:18;162.43;;;53.97;;
11835;SDS011;5977;51.972;7.640;2022-09-12T13:21:01;163.17;;;54.67;;
11835;SDS011;5977;51.972;7.640;2022-09-12T13:23:34;161.57;;;53.37;;
11835;SDS011;5977;51.972;7.640;2022-09-12T13:26:07;162.57;;;54.20;;
11835;SDS011;5977;51.972;7.640;2022-09-12T13:28:37;162.03;;;54.00;;
11835;SDS011;5977;51.972;7.640;2022-09-12T13:31:07;162.60;;;54.63;;
11835;SDS011;5977;51.972;7.640;2022-09-12T13:33:44;162.57;;;54.43;;
11835;SDS011;5977;51.972;7.640;2022-09-12T13:36:22;161.63;;;53.77;;
11835;SDS011;5977;51.972;7.640;2022-09-12T13:39:09;162.07;;;53.87;;
11835;SDS011;5977;51.972;7.640;2022-09-12T13:41:50;162.13;;;54.13;;
11835;SDS011;5977;51.972;7.640;2022-09-12T13:44:28;162.10;;;54.33;;
11835;SDS011;5977;51.972;7.640;2022-09-12T13:46:58;162.60;;;54.70;;
11835;SDS011;5977;51.972;7.640;2022-09-12T13:49:29;162.90;;;54.93;;
11835;SDS011;5977;51.972;7.640;2022-09-12T13:52:02;162.27;;;54.17;;
11835;SDS011;5977;51.972;7.640;2022-09-12T13:54:32;162.10;;;53.67;;
11835;SDS011;5977;51.972;7.640;2022-09-12T13:57:03;163.37;;;55.03;;
11835;SDS011;5977;51.972;7.640;2022-09-12T13:59:36;163.10;;;54.57;;
11835;SDS011;5977;51.972;7.640;2022-09-12T14:02:14;161.67;;;53.90;;
11835;SDS011;5977;51.972;7.640;2022-09-12T14:04:45;161.57;;;54.00;;
11835;SDS011;5977;51.972;7.640;2022-09-12T14:07:33;162.03;;;54.17;;
11835;SDS011;5977;51.972;7.640;2022-09-12T14:10:06;161.80;;;54.00;;
11835;SDS011;5977;51.972;7.640;2022-09-12T14:12:35;162.27;;;54.13;;
11835;SDS011;5977;51.972;7.640;2022-09-12T14:15:13;162.63;;;54.43;;
11835;SDS011;5977;51.972;7.640;2022-09-12T14:17:47;162.13;;;54.30;;
11835;SDS011;5977;51.972;7.640;2022-09-12T14:20:17;161.80;;;54.50;;
11835;SDS011;5977;51.972;7.640;2022-09-12T14:22:49;160.93;;;53.23;;
11835;SDS011;5977;51.972;7.640;2022-09-12T14:25:19;162.80;;;55.00;;
11835;SDS011;5977;51.972;7.640;2022-09-12T14:27:50;163.20;;;54.87;;
11835;SDS011;5977;51.972;7.640;2022-09-12T14:30:21;162.67;;;54.47;;
11835;SDS011;5977;51.972;7.640;2022-09-12T14:33:02;162.40;;;54.20;;
11835;SDS011;5977;51.972;7.640;2022-09-12T14:35:31;161.90;;;54.10;;
11835;SDS011;5977;51.972;7.640;2022-09-12T14:38:05;162.23;;;54.10;;
11835;SDS011;5977;51.972;7.640;2022-09-12T14:40:40;161.97;;;54.13;;
11835;SDS011;5977;51.972;7.640;2022-09-12T14:43:16;162.53;;;54.47;;
11835;SDS011;5977;51.972;7.640;2022-09-12T14:45:56;162.30;;;54.47;;
11835;SDS011;5977;51.972;7.640;2022-09-12T14:48:25;162.80;;;54.33;;
11835;SDS011;5977;51.972;7.640;2022-09-12T14:50:56;163.53;;;55.03;;
11835;SDS011;5977;51.972;7.640;2022-09-12T14:53:31;161.97;;;53.87;;
11835;SDS011;5977;51.972;7.640;2022-09-12T14:56:06;162.77;;;54.43;;
11835;SDS011;5977;51.972;7.640;2022-09-12T14:58:36;162.80;;;54.53;;
11835;SDS011;5977;51.972;7.640;2022-09-12T15:01:20;162.63;;;54.47;;
11835;SDS011;5977;51.972;7.640;2022-09-12T15:03:51;163.13;;;54.63;;
11835;SDS011;5977;51.972;7.640;2022-09-12T15:06:25;162.40;;;54.03;;
11835;SDS011;5977;51.972;7.640;2022-09-12T15:08:57;161.93;;;54.00;;
11835;SDS011;5977;51.972;7.640;2022-09-12T15:11:28;162.70;;;54.90;;
11835;SDS011;5977;51.972;7.640;2022-09-12T15:13:56;162.63;;;54.27;;
11835;SDS011;5977;51.972;7.640;2022-09-12T15:16:24;162.00;;;54.20;;
11835;SDS011;5977;51.972;7.640;2022-09-12T15:18:51;162.03;;;53.67;;
11835;SDS011;5977;51.972;7.640;2022-09-12T15:21:19;161.90;;;54.27;;
11835;SDS011;5977;51.972;7.640;2022-09-12T15:23:48;162.33;;;54.27;;
11835;SDS011;5977;51.972;7.640;2022-09-12T15:26:18;163.47;;;55.13;;
11835;SDS011;5977;51.972;7.640;2022-09-12T15:28:47;162.83;;;54.63;;
11835;SDS011;5977;51.972;7.640;2022-09-12T15:31:19;162.70;;;54.60;;
11835;SDS011;5977;51.972;7.640;2022-09-12T15:33:49;162.00;;;53.93;;